createdAt,value
2023-04-03T00:01:54.040Z,0.90
2023-04-03T00:04:20.670Z,0.90
2023-04-03T00:06:47.124Z,0.88
2023-04-03T00:09:13.645Z,0.90
2023-04-03T00:11:40.084Z,0.90
2023-04-03T00:14:06.555Z,1.02
2023-04-03T00:16:32.997Z,1.10
2023-04-03T00:18:59.412Z,1.10
2023-04-03T00:21:25.757Z,0.85
2023-04-03T00:23:52.194Z,0.75
2023-04-03T00:26:18.558Z,1.00
2023-04-03T00:28:44.963Z,0.95
2023-04-03T00:31:11.355Z,0.82
2023-04-03T00:33:37.724Z,0.68
2023-04-03T00:36:11.509Z,0.75
2023-04-03T00:38:38.322Z,0.93
2023-04-03T00:41:05.492Z,0.70
2023-04-03T00:43:39.260Z,0.75
2023-04-03T00:46:05.947Z,0.60
2023-04-03T00:48:39.523Z,0.57
2023-04-03T00:51:10.315Z,0.52
2023-04-03T00:53:41.591Z,0.88
2023-04-03T00:56:11.716Z,0.60
2023-04-03T00:58:43.800Z,0.70
2023-04-03T01:01:16.087Z,0.80
2023-04-03T01:03:42.578Z,0.70
2023-04-03T01:06:09.102Z,0.57
2023-04-03T01:08:36.369Z,0.68
2023-04-03T01:11:02.926Z,0.80
2023-04-03T01:13:32.668Z,0.70
2023-04-03T01:16:03.477Z,0.90
2023-04-03T01:18:31.763Z,0.50
2023-04-03T01:21:15.030Z,0.45
2023-04-03T01:24:00.799Z,0.75
2023-04-03T01:26:29.163Z,0.82
2023-04-03T01:28:56.337Z,1.00
2023-04-03T01:31:35.098Z,0.70
2023-04-03T01:34:02.120Z,0.60
2023-04-03T01:36:31.469Z,0.98
2023-04-03T01:39:00.201Z,0.80
2023-04-03T01:41:27.564Z,1.05
2023-04-03T01:43:54.087Z,0.88
2023-04-03T01:46:21.196Z,0.75
2023-04-03T01:48:48.030Z,0.82
2023-04-03T01:51:14.421Z,0.98
2023-04-03T01:53:40.839Z,0.82
2023-04-03T01:56:07.778Z,0.50
2023-04-03T01:58:34.619Z,0.80
2023-04-03T02:01:03.598Z,0.57
2023-04-03T02:03:30.555Z,0.75
2023-04-03T02:05:57.031Z,1.17
2023-04-03T02:08:23.724Z,0.63
2023-04-03T02:10:51.271Z,1.00
2023-04-03T02:13:18.586Z,0.50
2023-04-03T02:15:46.212Z,0.75
2023-04-03T02:18:13.296Z,1.02
2023-04-03T02:20:40.048Z,0.90
2023-04-03T02:23:06.728Z,0.68
2023-04-03T02:25:34.402Z,1.13
2023-04-03T02:28:01.654Z,1.23
2023-04-03T02:30:28.055Z,1.02
2023-04-03T02:32:54.538Z,0.55
2023-04-03T02:35:21.223Z,0.73
2023-04-03T02:37:47.625Z,1.10
2023-04-03T02:40:14.041Z,1.20
2023-04-03T02:42:40.356Z,0.85
2023-04-03T02:45:07.248Z,1.20
2023-04-03T02:47:33.650Z,1.00
2023-04-03T02:50:00.193Z,1.10
2023-04-03T02:52:26.543Z,1.00
2023-04-03T02:54:52.953Z,1.05
2023-04-03T02:57:20.567Z,0.75
2023-04-03T02:59:47.131Z,1.15
2023-04-03T03:02:13.590Z,1.25
2023-04-03T03:04:40.042Z,0.90
2023-04-03T03:07:06.588Z,0.90
2023-04-03T03:09:33.336Z,0.65
2023-04-03T03:11:59.851Z,0.68
2023-04-03T03:14:26.270Z,0.82
2023-04-03T03:16:52.685Z,0.68
2023-04-03T03:19:18.989Z,0.80
2023-04-03T03:21:45.332Z,0.93
2023-04-03T03:24:12.879Z,0.80
2023-04-03T03:26:39.351Z,0.82
2023-04-03T03:29:05.730Z,1.25
2023-04-03T03:31:32.073Z,1.20
2023-04-03T03:33:58.519Z,0.70
2023-04-03T03:36:24.904Z,0.80
2023-04-03T03:38:51.254Z,0.60
2023-04-03T03:41:17.574Z,0.98
2023-04-03T03:43:44.005Z,0.93
2023-04-03T03:46:10.694Z,0.73
2023-04-03T03:48:37.089Z,0.90
2023-04-03T03:51:03.670Z,0.90
2023-04-03T03:53:30.331Z,0.68
2023-04-03T03:55:56.664Z,0.80
2023-04-03T03:58:23.055Z,1.02
2023-04-03T04:00:49.410Z,0.80
2023-04-03T04:03:15.911Z,1.10
2023-04-03T04:05:42.495Z,0.90
2023-04-03T04:08:08.863Z,1.10
2023-04-03T04:10:36.563Z,0.90
2023-04-03T04:13:02.928Z,1.30
2023-04-03T04:15:29.425Z,0.90
2023-04-03T04:17:56.161Z,0.93
2023-04-03T04:20:24.742Z,1.00
2023-04-03T04:22:51.326Z,0.90
2023-04-03T04:25:17.768Z,1.25
2023-04-03T04:27:44.228Z,0.88
2023-04-03T04:30:11.840Z,0.98
2023-04-03T04:32:38.505Z,0.85
2023-04-03T04:35:05.894Z,1.20
2023-04-03T04:37:32.593Z,1.00
2023-04-03T04:39:59.089Z,0.90
2023-04-03T04:42:25.613Z,1.00
2023-04-03T04:44:52.092Z,1.00
2023-04-03T04:47:18.611Z,1.00
2023-04-03T04:49:45.093Z,0.90
2023-04-03T04:52:11.606Z,0.82
2023-04-03T04:54:37.997Z,0.90
2023-04-03T04:57:04.419Z,0.95
2023-04-03T04:59:31.073Z,1.20
2023-04-03T05:01:57.563Z,0.75
2023-04-03T05:04:24.090Z,1.17
2023-04-03T05:06:50.590Z,1.00
2023-04-03T05:09:17.129Z,1.10
2023-04-03T05:11:43.938Z,0.98
2023-04-03T05:14:10.712Z,0.90
2023-04-03T05:16:37.275Z,1.13
2023-04-03T05:19:04.370Z,1.10
2023-04-03T05:21:33.328Z,0.90
2023-04-03T05:24:03.498Z,1.08
2023-04-03T05:26:31.454Z,0.65
2023-04-03T05:28:58.023Z,1.02
2023-04-03T05:31:24.924Z,0.88
2023-04-03T05:33:51.469Z,1.08
2023-04-03T05:36:18.424Z,1.00
2023-04-03T05:38:45.055Z,0.95
2023-04-03T05:41:11.604Z,0.80
2023-04-03T05:43:39.756Z,0.82
2023-04-03T05:46:13.160Z,0.88
2023-04-03T05:48:39.888Z,1.10
2023-04-03T05:51:06.970Z,1.20
2023-04-03T05:53:38.216Z,1.25
2023-04-03T05:56:04.915Z,1.10
2023-04-03T05:58:31.749Z,3.75
2023-04-03T06:00:58.342Z,1.33
2023-04-03T06:03:26.439Z,0.70
2023-04-03T06:05:53.058Z,0.40
2023-04-03T06:08:19.607Z,1.10
2023-04-03T06:10:46.535Z,0.90
2023-04-03T06:13:13.344Z,1.20
2023-04-03T06:15:40.713Z,1.10
2023-04-03T06:18:07.633Z,0.80
2023-04-03T06:20:34.151Z,0.80
2023-04-03T06:23:00.926Z,0.90
2023-04-03T06:25:27.524Z,0.90
2023-04-03T06:27:56.278Z,0.50
2023-04-03T06:30:22.840Z,0.95
2023-04-03T06:32:49.345Z,1.10
2023-04-03T06:35:15.936Z,0.88
2023-04-03T06:37:42.340Z,0.70
2023-04-03T06:40:18.893Z,0.70
2023-04-03T06:42:45.332Z,0.90
2023-04-03T06:45:12.591Z,0.60
2023-04-03T06:47:39.202Z,0.93
2023-04-03T06:50:07.436Z,0.77
2023-04-03T06:52:33.862Z,0.80
2023-04-03T06:55:01.226Z,1.10
2023-04-03T06:57:27.796Z,1.00
2023-04-03T06:59:54.185Z,0.75
2023-04-03T07:02:21.734Z,0.88
2023-04-03T07:04:48.656Z,0.90
2023-04-03T07:07:15.655Z,0.90
2023-04-03T07:09:45.100Z,0.70
2023-04-03T07:12:11.795Z,1.00
2023-04-03T07:14:38.650Z,1.17
2023-04-03T07:17:05.071Z,0.93
2023-04-03T07:19:32.124Z,0.80
2023-04-03T07:21:58.705Z,0.80
2023-04-03T07:24:25.253Z,0.90
2023-04-03T07:26:53.501Z,0.73
2023-04-03T07:29:22.346Z,0.52
2023-04-03T07:31:48.837Z,0.88
2023-04-03T07:34:15.324Z,0.60
2023-04-03T07:36:42.164Z,0.90
2023-04-03T07:39:09.231Z,0.80
2023-04-03T07:41:35.818Z,1.05
2023-04-03T07:44:02.269Z,1.05
2023-04-03T07:46:28.752Z,0.80
2023-04-03T07:48:56.657Z,0.55
2023-04-03T07:51:25.528Z,0.68
2023-04-03T07:53:51.849Z,0.80
2023-04-03T07:56:18.245Z,1.00
2023-04-03T07:58:44.610Z,0.70
2023-04-03T08:01:11.065Z,0.68
2023-04-03T08:03:38.666Z,0.68
2023-04-03T08:06:11.874Z,1.00
2023-04-03T08:08:42.204Z,0.45
2023-04-03T08:11:09.312Z,0.50
2023-04-03T08:13:36.583Z,0.60
2023-04-03T08:16:32.552Z,1.13
2023-04-03T08:18:58.864Z,1.25
2023-04-03T08:21:26.190Z,0.70
2023-04-03T08:23:52.558Z,0.50
2023-04-03T08:26:22.131Z,0.90
2023-04-03T08:28:49.664Z,0.70
2023-04-03T08:31:19.381Z,0.30
2023-04-03T08:33:46.160Z,0.32
2023-04-03T08:36:23.077Z,0.30
2023-04-03T08:38:50.606Z,0.60
2023-04-03T08:41:19.636Z,0.60
2023-04-03T08:44:00.679Z,0.30
2023-04-03T08:47:06.112Z,0.40
2023-04-03T08:49:38.482Z,0.40
2023-04-03T08:52:13.564Z,0.20
2023-04-03T08:54:51.833Z,0.70
2023-04-03T08:57:27.591Z,0.20
2023-04-03T08:59:54.191Z,0.30
2023-04-03T09:02:35.829Z,0.20
2023-04-03T09:05:07.102Z,0.40
2023-04-03T09:07:42.977Z,0.28
2023-04-03T09:10:13.185Z,0.30
2023-04-03T09:12:45.060Z,0.30
2023-04-03T09:15:14.333Z,0.35
2023-04-03T09:18:01.965Z,0.22
2023-04-03T09:20:42.982Z,0.52
2023-04-03T09:23:15.776Z,0.35
2023-04-03T09:25:42.944Z,0.15
2023-04-03T09:28:10.832Z,0.30
2023-04-03T09:30:39.324Z,0.17
2023-04-03T09:33:07.842Z,0.25
2023-04-03T09:35:47.329Z,0.35
2023-04-03T09:38:14.896Z,0.40
2023-04-03T09:40:43.848Z,0.20
2023-04-03T09:43:35.342Z,0.40
2023-04-03T09:46:24.267Z,0.73
2023-04-03T09:49:05.191Z,0.35
2023-04-03T09:51:35.151Z,0.40
2023-04-03T09:54:22.016Z,0.20
2023-04-03T09:56:52.562Z,0.30
2023-04-03T09:59:19.057Z,0.40
2023-04-03T10:01:59.530Z,0.20
2023-04-03T10:04:26.153Z,0.47
2023-04-03T10:06:55.574Z,0.43
2023-04-03T10:09:30.503Z,0.30
2023-04-03T10:12:05.983Z,0.10
2023-04-03T10:14:35.093Z,0.35
2023-04-03T10:17:13.761Z,0.30
2023-04-03T10:19:44.398Z,0.70
2023-04-03T10:22:13.718Z,0.20
2023-04-03T10:25:15.752Z,0.25
2023-04-03T10:27:57.124Z,0.30
2023-04-03T10:30:51.446Z,0.50
2023-04-03T10:33:32.758Z,0.47
2023-04-03T10:38:44.316Z,0.35
2023-04-03T10:41:22.216Z,0.60
2023-04-03T10:44:03.762Z,0.22
2023-04-03T10:46:39.070Z,0.30
2023-04-03T10:49:17.906Z,0.30
2023-04-03T10:51:48.418Z,0.60
2023-04-03T10:54:21.093Z,0.20
2023-04-03T10:57:08.516Z,0.40
2023-04-03T10:59:45.644Z,0.25
2023-04-03T11:02:58.361Z,0.35
2023-04-03T11:05:48.084Z,0.40
2023-04-03T11:08:36.276Z,0.50
2023-04-03T11:11:17.934Z,0.30
2023-04-03T11:13:59.323Z,0.45
2023-04-03T11:16:30.658Z,0.32
2023-04-03T11:19:28.793Z,0.38
2023-04-03T11:22:01.913Z,0.32
2023-04-03T11:24:33.130Z,0.28
2023-04-03T11:29:35.798Z,0.65
2023-04-03T11:32:09.983Z,0.55
2023-04-03T11:34:42.584Z,0.50
2023-04-03T11:37:18.764Z,0.30
2023-04-03T11:39:55.848Z,0.30
2023-04-03T11:42:29.239Z,0.40
2023-04-03T11:45:28.031Z,0.22
2023-04-03T11:47:56.964Z,0.50
2023-04-03T11:50:35.479Z,0.38
2023-04-03T11:53:40.664Z,0.40
2023-04-03T11:56:26.551Z,0.50
2023-04-03T11:59:11.435Z,0.30
2023-04-03T12:01:53.105Z,0.30
2023-04-03T12:04:25.172Z,0.25
2023-04-03T12:07:03.767Z,0.30
2023-04-03T12:09:58.187Z,0.22
2023-04-03T12:12:30.650Z,0.50
2023-04-03T12:15:19.175Z,0.60
2023-04-03T12:17:45.598Z,0.50
2023-04-03T12:20:50.464Z,0.50
2023-04-03T12:23:39.233Z,0.38
2023-04-03T12:26:20.432Z,0.35
2023-04-03T12:31:14.566Z,0.50
2023-04-03T12:33:44.013Z,0.40
2023-04-03T12:36:19.745Z,1.20
2023-04-03T12:39:00.574Z,0.57
2023-04-03T12:41:39.096Z,0.55
2023-04-03T12:44:14.530Z,0.43
2023-04-03T12:46:51.229Z,0.68
2023-04-03T12:49:29.451Z,0.47
2023-04-03T12:51:56.217Z,0.47
2023-04-03T12:54:37.942Z,0.30
2023-04-03T12:57:11.752Z,0.50
2023-04-03T12:59:42.069Z,0.22
2023-04-03T13:02:36.924Z,0.57
2023-04-03T13:05:16.239Z,0.25
2023-04-03T13:07:44.357Z,0.52
2023-04-03T13:10:10.646Z,0.45
2023-04-03T13:12:51.550Z,0.30
2023-04-03T13:15:41.231Z,0.63
2023-04-03T13:18:27.944Z,0.40
2023-04-03T13:21:01.849Z,0.57
2023-04-03T13:23:28.641Z,0.40
2023-04-03T13:25:55.951Z,0.50
2023-04-03T13:28:24.434Z,0.50
2023-04-03T13:31:00.024Z,0.40
2023-04-03T13:33:29.191Z,0.43
2023-04-03T13:36:17.631Z,0.93
2023-04-03T13:38:44.359Z,0.30
2023-04-03T13:41:32.331Z,0.40
2023-04-03T13:44:36.209Z,0.65
2023-04-03T13:47:11.728Z,0.50
2023-04-03T13:49:43.606Z,0.70
2023-04-03T13:52:32.204Z,0.75
2023-04-03T13:55:04.169Z,0.50
2023-04-03T13:57:32.632Z,0.77
2023-04-03T13:59:59.158Z,0.63
2023-04-03T14:02:34.449Z,0.98
2023-04-03T14:05:04.060Z,0.70
2023-04-03T14:07:32.258Z,0.70
2023-04-03T14:09:59.098Z,0.80
2023-04-03T14:12:32.252Z,0.80
2023-04-03T14:15:02.403Z,1.00
2023-04-03T14:17:29.336Z,1.13
2023-04-03T14:19:57.750Z,0.73
2023-04-03T14:22:26.992Z,0.55
2023-04-03T14:24:54.152Z,1.20
2023-04-03T14:27:27.633Z,1.00
2023-04-03T14:29:55.932Z,1.00
2023-04-03T14:32:23.952Z,0.75
2023-04-03T14:34:51.864Z,0.80
2023-04-03T14:37:23.331Z,0.80
2023-04-03T14:39:51.000Z,1.00
2023-04-03T14:42:22.083Z,0.88
2023-04-03T14:44:49.131Z,1.00
2023-04-03T14:47:30.599Z,1.05
2023-04-03T14:49:59.104Z,0.95
2023-04-03T14:52:32.118Z,0.80
2023-04-03T14:54:59.227Z,0.60
2023-04-03T14:57:27.988Z,0.68
2023-04-03T14:59:54.539Z,0.80
2023-04-03T15:02:27.252Z,0.80
2023-04-03T15:04:57.799Z,1.38
2023-04-03T15:09:52.232Z,0.70
2023-04-03T15:12:21.846Z,0.70
2023-04-03T15:14:57.477Z,0.87
2023-04-03T15:17:27.375Z,0.70
2023-04-03T15:19:53.758Z,0.70
2023-04-03T15:22:20.755Z,0.90
2023-04-03T15:24:47.181Z,1.10
2023-04-03T15:27:14.581Z,0.77
2023-04-03T15:29:42.788Z,0.80
2023-04-03T15:32:10.494Z,0.75
2023-04-03T15:34:37.948Z,0.77
2023-04-03T15:37:04.542Z,1.00
2023-04-03T15:39:31.081Z,0.90
2023-04-03T15:42:00.573Z,0.88
2023-04-03T15:44:26.888Z,0.80
2023-04-03T15:46:53.395Z,0.80
2023-04-03T15:49:21.838Z,1.50
2023-04-03T15:51:48.488Z,1.00
2023-04-03T15:54:14.867Z,1.50
2023-04-03T15:56:41.244Z,1.00
2023-04-03T15:59:07.626Z,1.00
2023-04-03T16:01:34.396Z,1.00
2023-04-03T16:04:00.894Z,1.13
2023-04-03T16:06:30.251Z,1.10
2023-04-03T16:08:58.790Z,1.15
2023-04-03T16:11:26.925Z,0.70
2023-04-03T16:13:54.279Z,1.13
2023-04-03T16:16:20.891Z,1.30
2023-04-03T16:18:48.046Z,1.10
2023-04-03T16:21:16.290Z,0.90
2023-04-03T16:23:43.336Z,0.90
2023-04-03T16:26:09.969Z,1.30
2023-04-03T16:28:36.321Z,1.63
2023-04-03T16:31:03.565Z,0.80
2023-04-03T16:33:31.046Z,1.30
2023-04-03T16:35:57.430Z,1.15
2023-04-03T16:38:23.919Z,0.70
2023-04-03T16:40:50.449Z,0.90
2023-04-03T16:43:17.080Z,1.20
2023-04-03T16:45:43.417Z,1.05
2023-04-03T16:48:09.779Z,0.80
2023-04-03T16:50:36.187Z,0.98
2023-04-03T16:53:03.805Z,0.73
2023-04-03T16:55:30.350Z,1.20
2023-04-03T16:57:56.687Z,1.23
2023-04-03T17:00:22.998Z,0.95
2023-04-03T17:02:49.352Z,0.93
2023-04-03T17:05:15.815Z,1.00
2023-04-03T17:07:42.155Z,1.05
2023-04-03T17:10:09.156Z,0.80
2023-04-03T17:12:35.574Z,1.40
2023-04-03T17:15:02.028Z,1.13
2023-04-03T17:17:28.528Z,1.50
2023-04-03T17:19:56.409Z,1.60
2023-04-03T17:22:23.183Z,1.80
2023-04-03T17:24:49.560Z,1.10
2023-04-03T17:27:16.083Z,1.48
2023-04-03T17:29:42.428Z,1.27
2023-04-03T17:32:08.892Z,0.85
2023-04-03T17:34:36.701Z,1.10
2023-04-03T17:37:03.613Z,0.90
2023-04-03T17:39:29.933Z,1.30
2023-04-03T17:41:56.456Z,1.10
2023-04-03T17:44:22.935Z,0.90
2023-04-03T17:46:49.390Z,1.33
2023-04-03T17:49:18.511Z,1.00
2023-04-03T17:51:44.868Z,0.70
2023-04-03T17:54:11.207Z,0.75
2023-04-03T17:56:37.765Z,1.10
2023-04-03T17:59:04.410Z,1.17
2023-04-03T18:01:33.970Z,1.00
2023-04-03T18:04:03.199Z,1.00
2023-04-03T18:06:55.067Z,1.08
2023-04-03T18:09:25.325Z,1.20
2023-04-03T18:11:52.663Z,1.20
2023-04-03T18:14:23.579Z,1.38
2023-04-03T18:16:50.157Z,1.38
2023-04-03T18:21:47.651Z,1.27
2023-04-03T18:24:16.736Z,1.40
2023-04-03T18:26:47.826Z,1.13
2023-04-03T18:31:45.318Z,2.13
2023-04-03T18:34:12.613Z,2.17
2023-04-03T18:36:40.541Z,2.22
2023-04-03T18:39:07.036Z,2.30
2023-04-03T18:41:37.176Z,1.50
2023-04-03T18:44:06.727Z,1.77
2023-04-03T18:46:33.736Z,1.90
2023-04-03T18:49:00.485Z,1.55
2023-04-03T18:51:27.361Z,1.00
2023-04-03T18:53:53.721Z,1.00
2023-04-03T18:56:20.068Z,0.82
2023-04-03T18:58:46.438Z,1.08
2023-04-03T19:01:14.089Z,1.35
2023-04-03T19:03:41.237Z,1.88
2023-04-03T19:06:07.973Z,2.40
2023-04-03T19:08:34.878Z,2.00
2023-04-03T19:11:01.384Z,2.60
2023-04-03T19:13:27.936Z,2.60
2023-04-03T19:15:58.615Z,2.72
2023-04-03T19:18:26.414Z,2.53
2023-04-03T19:20:56.011Z,1.90
2023-04-03T19:23:23.848Z,1.40
2023-04-03T19:25:59.375Z,1.52
2023-04-03T19:28:25.905Z,1.00
2023-04-03T19:30:53.241Z,1.00
2023-04-03T19:33:20.809Z,1.33
2023-04-03T19:35:47.157Z,1.10
2023-04-03T19:38:13.541Z,1.35
2023-04-03T19:40:43.560Z,1.60
2023-04-03T19:43:14.219Z,1.83
2023-04-03T19:45:41.464Z,1.88
2023-04-03T19:48:08.352Z,2.05
2023-04-03T19:50:35.560Z,1.90
2023-04-03T19:53:02.128Z,1.70
2023-04-03T19:55:31.223Z,2.10
2023-04-03T19:58:01.927Z,1.50
2023-04-03T20:00:29.899Z,2.10
2023-04-03T20:02:56.570Z,2.00
2023-04-03T20:05:23.605Z,1.60
2023-04-03T20:07:50.523Z,1.65
2023-04-03T20:10:17.469Z,1.50
2023-04-03T20:12:44.680Z,1.38
2023-04-03T20:15:11.465Z,1.90
2023-04-03T20:17:38.175Z,2.20
2023-04-03T20:20:05.886Z,2.47
2023-04-03T20:22:32.973Z,2.20
2023-04-03T20:25:06.112Z,2.28
2023-04-03T20:27:33.669Z,2.10
2023-04-03T20:30:02.306Z,1.80
2023-04-03T20:32:30.013Z,1.60
2023-04-03T20:35:03.056Z,2.00
2023-04-03T20:37:31.866Z,1.73
2023-04-03T20:39:58.251Z,2.10
2023-04-03T20:42:24.723Z,1.88
2023-04-03T20:44:51.076Z,1.95
2023-04-03T20:47:17.601Z,2.97
2023-04-03T20:49:46.053Z,3.03
2023-04-03T20:52:12.379Z,2.65
2023-04-03T20:54:39.452Z,4.05
2023-04-03T20:57:05.903Z,4.95
2023-04-03T20:59:34.065Z,4.05
2023-04-03T21:02:00.808Z,3.20
2023-04-03T21:04:36.586Z,3.55
2023-04-03T21:07:41.251Z,4.07
2023-04-03T21:10:45.073Z,2.22
2023-04-03T21:13:48.848Z,1.23
2023-04-03T21:16:15.454Z,1.30
2023-04-03T21:19:02.636Z,0.90
2023-04-03T21:21:29.327Z,1.27
2023-04-03T21:23:56.317Z,1.58
2023-04-03T21:26:25.315Z,1.00
2023-04-03T21:28:55.014Z,1.20
2023-04-03T21:31:22.199Z,1.20
2023-04-03T21:33:49.260Z,0.90
2023-04-03T21:36:16.129Z,1.00
2023-04-03T21:38:44.809Z,0.82
2023-04-03T21:41:11.361Z,1.20
2023-04-03T21:43:37.776Z,1.02
2023-04-03T21:46:05.488Z,1.05
2023-04-03T21:48:32.018Z,0.73
2023-04-03T21:51:02.498Z,1.00
2023-04-03T21:53:30.612Z,0.88
2023-04-03T21:55:57.516Z,0.75
2023-04-03T21:58:31.714Z,1.10
2023-04-03T22:01:07.812Z,1.00
2023-04-03T22:03:34.819Z,1.15
2023-04-03T22:06:01.246Z,1.98
2023-04-03T22:08:28.799Z,2.15
2023-04-03T22:11:06.436Z,1.95
2023-04-03T22:13:33.940Z,1.23
2023-04-03T22:16:01.575Z,1.30
2023-04-03T22:18:28.687Z,1.20
2023-04-03T22:20:55.542Z,0.90
2023-04-03T22:23:22.575Z,0.90
2023-04-03T22:26:03.815Z,1.23
2023-04-03T22:31:07.181Z,0.90
2023-04-03T22:33:36.278Z,0.90
2023-04-03T22:36:06.951Z,1.38
2023-04-03T22:38:34.873Z,1.00
2023-04-03T22:41:03.513Z,1.00
2023-04-03T22:43:31.449Z,0.95
2023-04-03T22:45:59.470Z,1.05
2023-04-03T22:48:26.973Z,1.30
2023-04-03T22:50:53.572Z,1.00
2023-04-03T22:53:19.991Z,1.20
2023-04-03T22:55:59.464Z,1.00
2023-04-03T22:58:26.931Z,0.95
2023-04-03T23:01:14.851Z,1.00
2023-04-03T23:03:42.236Z,1.50
2023-04-03T23:06:09.612Z,1.33
2023-04-03T23:08:40.611Z,1.30
2023-04-03T23:11:07.415Z,1.30
2023-04-03T23:13:33.968Z,1.13
2023-04-03T23:16:01.491Z,1.25
2023-04-03T23:18:30.139Z,1.40
2023-04-03T23:20:58.542Z,1.30
2023-04-03T23:23:25.332Z,1.30
2023-04-03T23:25:56.756Z,1.17
2023-04-03T23:28:23.114Z,1.38
2023-04-03T23:30:50.878Z,1.13
2023-04-03T23:33:17.197Z,1.10
2023-04-03T23:35:48.707Z,1.30
2023-04-03T23:38:16.042Z,1.50
2023-04-03T23:40:43.122Z,1.70
2023-04-03T23:43:09.714Z,1.38
2023-04-03T23:45:36.248Z,1.60
2023-04-03T23:48:02.912Z,1.35
2023-04-03T23:50:29.446Z,1.33
2023-04-03T23:52:55.859Z,1.40
2023-04-03T23:55:22.241Z,1.40
2023-04-03T23:57:48.604Z,1.33
